Quarteles, New Mexico
Current Conditions -  °F | °C
As of 12:15 PM on Saturday 25 Oct 2014 (Local Time) from KLAM Reporting Station
Clear Clear  
Wind Chill: 19°   Ceiling: Unl
Heat Index: 19°   Visibility: 10mi
Dew Point: -5°   Wind: 3mph
Humidity: 21%   Direction: 110°ESE
Pressure: 30.39"   Gusts: NA
Location:  35.9775°N, 106.158°W
Report Text: KLAM 251815Z AUTO 11003KT 10SM CLR 19/M05 A3039 RMK AO2 T01861046
Loading
Personal Weather Stations






























Interactive Weather Map
Tropical Storm Tracking
New forecast layout! Learn more

10-Day Weather Forecast

Advertisements
Track Severe Weather on mobile